Terminal Aerodrome Forecast
Issued by NWS

Home | Current Version | Previous Version | Text Only | Print | Product List | Glossary On
Versions: 1 2 3 4 5 6 7 8 9 10 11 12 13 14 15 16 17 18 19 20
000
FTAK31 PAFA 250526 CCA
TAFASC
TAF COR
PASC 250526Z 2506/2606 36008KT 6SM -SN BR SCT015 BKN025 OVC035
     FM251500 27006KT 6SM BR BKN015 BKN025 OVC035=

USA.gov is the U.S. government's official web portal to all federal, state and local government web resources and services.